createdAt,value
2019-03-23T00:00:32.934Z,100779.06
2019-03-23T00:03:02.676Z,100784.89
2019-03-23T00:05:32.396Z,100780.02
2019-03-23T00:08:02.145Z,100784.09
2019-03-23T00:10:31.910Z,100782.09
2019-03-23T00:13:01.651Z,100780.63
2019-03-23T00:15:31.502Z,100787.84
2019-03-23T00:18:01.174Z,100773.39
2019-03-23T00:20:30.927Z,100785.52
2019-03-23T00:23:00.657Z,100781.52
2019-03-23T00:25:30.365Z,100781.62
2019-03-23T00:28:00.105Z,100784.02
2019-03-23T00:30:29.845Z,100782.77
2019-03-23T00:32:59.556Z,100786.42
2019-03-23T00:35:29.588Z,100786.18
2019-03-23T00:37:59.408Z,100788.81
2019-03-23T00:40:29.125Z,100783.67
2019-03-23T00:42:58.875Z,100786.65
2019-03-23T00:45:28.623Z,100785.59
2019-03-23T00:47:58.371Z,100787.28
2019-03-23T00:50:28.164Z,100790.95
2019-03-23T00:52:57.861Z,100788.51
2019-03-23T00:55:27.563Z,100791.03
2019-03-23T00:57:57.295Z,100795.89
2019-03-23T01:00:26.990Z,100796.45
2019-03-23T01:02:56.808Z,100798.46
2019-03-23T01:05:26.521Z,100786.39
2019-03-23T01:07:56.223Z,100793.63
2019-03-23T01:10:25.950Z,100790.84
2019-03-23T01:12:55.708Z,100789.66
2019-03-23T01:15:25.456Z,100785.27
2019-03-23T01:17:55.159Z,100785.00
2019-03-23T01:20:24.870Z,100786.03
2019-03-23T01:22:54.652Z,100787.77
2019-03-23T01:25:24.432Z,100782.53
2019-03-23T01:27:54.118Z,100777.45
2019-03-23T01:30:23.929Z,100771.70
2019-03-23T01:32:53.613Z,100777.81
2019-03-23T01:35:23.418Z,100777.23
2019-03-23T01:37:53.134Z,100770.52
2019-03-23T01:40:23.024Z,100771.38
2019-03-23T01:42:52.764Z,100770.64
2019-03-23T01:45:22.539Z,100770.73
2019-03-23T01:47:52.210Z,100776.28
2019-03-23T01:50:21.967Z,100775.55
2019-03-23T01:52:51.648Z,100775.77
2019-03-23T01:55:21.377Z,100780.19
2019-03-23T01:57:51.106Z,100782.91
2019-03-23T02:00:20.835Z,100781.85
2019-03-23T02:02:50.711Z,100782.48
2019-03-23T02:05:20.484Z,100782.23
2019-03-23T02:07:50.176Z,100782.48
2019-03-23T02:10:19.890Z,100784.12
2019-03-23T02:12:49.622Z,100783.13
2019-03-23T02:15:19.325Z,100780.05
2019-03-23T02:17:49.053Z,100781.73
2019-03-23T02:20:18.753Z,100777.50
2019-03-23T02:22:48.471Z,100778.31
2019-03-23T02:25:18.267Z,100781.05
2019-03-23T02:27:48.012Z,100780.32
2019-03-23T02:30:17.863Z,100780.43
2019-03-23T02:32:47.613Z,100785.89
2019-03-23T02:35:17.314Z,100781.05
2019-03-23T02:37:47.134Z,100783.95
2019-03-23T02:40:16.806Z,100784.70
2019-03-23T02:42:46.541Z,100771.25
2019-03-23T02:45:16.315Z,100787.74
2019-03-23T02:47:46.049Z,100787.59
2019-03-23T02:50:15.754Z,100784.97
2019-03-23T02:52:45.492Z,100782.59
2019-03-23T02:55:15.232Z,100782.67
2019-03-23T02:57:44.957Z,100771.83
2019-03-23T03:00:14.737Z,100776.53
2019-03-23T03:02:44.449Z,100774.40
2019-03-23T03:05:14.372Z,100777.07
2019-03-23T03:07:44.231Z,100776.11
2019-03-23T03:10:17.768Z,100776.73
2019-03-23T03:12:47.442Z,100781.38
2019-03-23T03:15:17.182Z,100781.98
2019-03-23T03:17:46.950Z,100780.86
2019-03-23T03:20:16.790Z,100783.12
2019-03-23T03:22:46.564Z,100779.34
2019-03-23T03:25:16.310Z,100771.23
2019-03-23T03:27:46.062Z,100780.19
2019-03-23T03:30:15.819Z,100781.12
2019-03-23T03:32:45.458Z,100775.16
2019-03-23T03:35:15.295Z,100772.17
2019-03-23T03:37:55.869Z,100776.09
2019-03-23T03:40:16.606Z,100778.05
2019-03-23T03:42:46.267Z,100780.20
2019-03-23T03:45:22.475Z,100784.99
2019-03-23T03:47:52.168Z,100783.62
2019-03-23T03:50:22.117Z,100780.13
2019-03-23T03:52:51.798Z,100782.58
2019-03-23T03:55:21.491Z,100781.08
2019-03-23T03:57:51.177Z,100775.25
2019-03-23T04:00:21.003Z,100770.94
2019-03-23T04:02:50.713Z,100773.94
2019-03-23T04:05:20.508Z,100770.21
2019-03-23T04:07:50.304Z,100769.05
2019-03-23T04:10:20.025Z,100772.00
2019-03-23T04:12:49.720Z,100778.48
2019-03-23T04:15:19.553Z,100781.53
2019-03-23T04:17:49.221Z,100787.20
2019-03-23T04:20:18.900Z,100785.14
2019-03-23T04:22:48.582Z,100788.73
2019-03-23T04:25:18.285Z,100788.33
2019-03-23T04:27:47.985Z,100790.84
2019-03-23T04:30:17.787Z,100790.11
2019-03-23T04:32:47.459Z,100788.53
2019-03-23T04:35:17.165Z,100788.77
2019-03-23T04:37:46.966Z,100789.66
2019-03-23T04:40:16.741Z,100789.84
2019-03-23T04:42:46.423Z,100794.55
2019-03-23T04:45:16.131Z,100795.61
2019-03-23T04:47:45.917Z,100793.70
2019-03-23T04:50:15.645Z,100795.93
2019-03-23T04:52:45.387Z,100796.06
2019-03-23T04:55:15.892Z,100801.04
2019-03-23T04:57:45.619Z,100805.31
2019-03-23T05:00:16.152Z,100801.12
2019-03-23T05:02:45.954Z,100805.38
2019-03-23T05:05:15.762Z,100802.41
2019-03-23T05:07:45.473Z,100803.98
2019-03-23T05:10:15.295Z,100807.73
2019-03-23T05:12:44.986Z,100811.72
2019-03-23T05:15:14.809Z,100784.77
2019-03-23T05:17:44.524Z,100806.55
2019-03-23T05:20:25.019Z,100812.85
2019-03-23T05:22:54.740Z,100810.98
2019-03-23T05:25:25.850Z,100805.30
2019-03-23T05:27:55.570Z,100813.77
2019-03-23T05:30:25.279Z,100812.41
2019-03-23T05:32:55.144Z,100814.17
2019-03-23T05:35:24.841Z,100812.34
2019-03-23T05:37:54.561Z,100808.61
2019-03-23T05:40:24.466Z,100813.39
2019-03-23T05:42:54.203Z,100818.12
2019-03-23T05:45:24.414Z,100819.45
2019-03-23T05:47:54.127Z,100818.53
2019-03-23T05:50:25.650Z,100817.17
2019-03-23T05:52:55.376Z,100817.38
2019-03-23T05:55:25.063Z,100813.59
2019-03-23T05:57:54.749Z,100822.88
2019-03-23T06:00:24.583Z,100822.47
2019-03-23T06:02:54.345Z,100821.39
2019-03-23T06:05:24.777Z,100828.66
2019-03-23T06:07:54.605Z,100829.09
2019-03-23T06:10:24.411Z,100829.58
2019-03-23T06:12:54.111Z,100834.22
2019-03-23T06:15:23.901Z,100837.13
2019-03-23T06:17:53.629Z,100835.33
2019-03-23T06:20:23.383Z,100837.24
2019-03-23T06:22:53.226Z,100839.34
2019-03-23T06:25:22.946Z,100838.50
2019-03-23T06:27:52.715Z,100834.41
2019-03-23T06:30:22.367Z,100840.75
2019-03-23T06:32:52.048Z,100834.06
2019-03-23T06:35:21.732Z,100833.66
2019-03-23T06:37:51.525Z,100834.42
2019-03-23T06:40:21.269Z,100833.89
2019-03-23T06:42:59.418Z,100831.86
2019-03-23T06:45:22.673Z,100832.16
2019-03-23T06:47:52.512Z,100837.89
2019-03-23T06:50:22.253Z,100834.97
2019-03-23T06:52:51.996Z,100842.30
2019-03-23T06:55:21.762Z,100843.75
2019-03-23T06:57:51.626Z,100848.92
2019-03-23T07:00:21.466Z,100842.16
2019-03-23T07:02:51.150Z,100835.47
2019-03-23T07:05:20.878Z,100834.46
2019-03-23T07:07:50.644Z,100834.96
2019-03-23T07:10:20.603Z,100836.90
2019-03-23T07:12:50.337Z,100841.63
2019-03-23T07:15:20.654Z,100849.95
2019-03-23T07:17:50.453Z,100843.19
2019-03-23T07:20:20.148Z,100840.11
2019-03-23T07:22:49.877Z,100847.86
2019-03-23T07:25:19.631Z,100840.78
2019-03-23T07:27:49.404Z,100848.20
2019-03-23T07:30:19.533Z,100848.06
2019-03-23T07:32:50.430Z,100848.27
2019-03-23T07:35:20.137Z,100848.52
2019-03-23T07:37:49.943Z,100845.14
2019-03-23T07:40:19.739Z,100843.78
2019-03-23T07:42:49.528Z,100844.41
2019-03-23T07:45:19.385Z,100845.08
2019-03-23T07:47:49.067Z,100830.13
2019-03-23T07:50:18.832Z,100847.38
2019-03-23T07:52:48.549Z,100848.75
2019-03-23T07:55:18.359Z,100846.12
2019-03-23T07:57:48.364Z,100840.53
2019-03-23T08:00:19.644Z,100835.23
2019-03-23T08:02:49.510Z,100834.48
2019-03-23T08:05:19.478Z,100836.89
2019-03-23T08:07:49.221Z,100843.91
2019-03-23T08:10:32.669Z,100839.16
2019-03-23T08:13:02.601Z,100842.75
2019-03-23T08:15:32.738Z,100843.28
2019-03-23T08:18:02.462Z,100840.66
2019-03-23T08:20:32.174Z,100842.08
2019-03-23T08:23:01.912Z,100844.77
2019-03-23T08:25:32.011Z,100841.19
2019-03-23T08:28:01.774Z,100842.47
2019-03-23T08:30:31.520Z,100845.86
2019-03-23T08:33:01.240Z,100845.66
2019-03-23T08:35:30.957Z,100845.34
2019-03-23T08:38:00.650Z,100844.73
2019-03-23T08:40:30.394Z,100839.45
2019-03-23T08:43:00.169Z,100834.78
2019-03-23T08:45:29.997Z,100830.20
2019-03-23T08:47:59.751Z,100822.04
2019-03-23T08:50:29.488Z,100819.27
2019-03-23T08:52:59.392Z,100817.30
2019-03-23T08:55:29.202Z,100819.13
2019-03-23T08:57:58.941Z,100815.30
2019-03-23T09:00:28.618Z,100819.69
2019-03-23T09:02:58.405Z,100805.86
2019-03-23T09:05:28.171Z,100814.19
2019-03-23T09:07:58.217Z,100812.77
2019-03-23T09:10:27.923Z,100813.89
2019-03-23T09:12:57.628Z,100814.16
2019-03-23T09:15:27.374Z,100807.25
2019-03-23T09:17:57.048Z,100805.53
2019-03-23T09:20:29.367Z,100809.73
2019-03-23T09:22:58.540Z,100810.73
2019-03-23T09:25:28.255Z,100807.67
2019-03-23T09:27:57.955Z,100807.20
2019-03-23T09:30:27.793Z,100812.34
2019-03-23T09:32:57.574Z,100808.09
2019-03-23T09:35:28.936Z,100814.33
2019-03-23T09:37:58.696Z,100821.42
2019-03-23T09:40:28.483Z,100817.30
2019-03-23T09:42:58.283Z,100822.69
2019-03-23T09:45:28.044Z,100819.63
2019-03-23T09:47:57.797Z,100827.08
2019-03-23T09:50:27.610Z,100821.94
2019-03-23T09:52:57.324Z,100806.19
2019-03-23T09:55:28.667Z,100819.13
2019-03-23T09:58:01.948Z,100809.69
2019-03-23T10:00:31.650Z,100814.16
2019-03-23T10:03:01.396Z,100805.93
2019-03-23T10:05:31.095Z,100809.06
2019-03-23T10:08:00.961Z,100803.79
2019-03-23T10:10:30.892Z,100798.06
2019-03-23T10:13:00.745Z,100790.67
2019-03-23T10:15:30.444Z,100792.47
2019-03-23T10:18:01.656Z,100797.73
2019-03-23T10:20:31.516Z,100796.23
2019-03-23T10:23:01.344Z,100794.66
2019-03-23T10:25:31.178Z,100792.45
2019-03-23T10:28:00.950Z,100797.09
2019-03-23T10:30:30.707Z,100792.55
2019-03-23T10:33:00.621Z,100796.23
2019-03-23T10:35:30.418Z,100789.90
2019-03-23T10:38:00.173Z,100782.16
2019-03-23T10:40:32.707Z,100772.30
2019-03-23T10:43:01.775Z,100773.65
2019-03-23T10:45:31.486Z,100771.99
2019-03-23T10:48:01.198Z,100773.78
2019-03-23T10:50:30.941Z,100767.17
2019-03-23T10:53:00.706Z,100768.94
2019-03-23T10:55:30.490Z,100760.62
2019-03-23T10:58:00.259Z,100755.92
2019-03-23T11:00:29.979Z,100766.81
2019-03-23T11:02:59.896Z,100756.41
2019-03-23T11:05:29.892Z,100759.80
2019-03-23T11:07:59.632Z,100761.52
2019-03-23T11:10:29.378Z,100752.45
2019-03-23T11:12:59.226Z,100755.96
2019-03-23T11:15:28.967Z,100761.70
2019-03-23T11:17:58.732Z,100750.95
2019-03-23T11:20:28.541Z,100750.70
2019-03-23T11:22:58.290Z,100742.30
2019-03-23T11:25:28.149Z,100752.91
2019-03-23T11:27:57.870Z,100758.07
2019-03-23T11:30:27.627Z,100753.37
2019-03-23T11:32:57.442Z,100747.20
2019-03-23T11:35:27.228Z,100749.35
2019-03-23T11:37:57.132Z,100752.39
2019-03-23T11:40:28.007Z,100751.06
2019-03-23T11:42:57.757Z,100751.51
2019-03-23T11:45:27.530Z,100750.30
2019-03-23T11:47:57.227Z,100749.22
2019-03-23T11:50:26.954Z,100750.08
2019-03-23T11:52:56.827Z,100749.40
2019-03-23T11:55:26.545Z,100745.13
2019-03-23T11:57:56.394Z,100740.92
2019-03-23T12:00:26.244Z,100740.06
2019-03-23T12:02:55.974Z,100748.39
2019-03-23T12:05:25.708Z,100744.33
2019-03-23T12:07:55.485Z,100742.71
2019-03-23T12:10:25.269Z,100747.91
2019-03-23T12:12:55.152Z,100747.81
2019-03-23T12:15:24.905Z,100745.94
2019-03-23T12:17:55.011Z,100746.98
2019-03-23T12:20:24.847Z,100749.96
2019-03-23T12:22:55.291Z,100749.30
2019-03-23T12:25:25.112Z,100742.85
2019-03-23T12:27:54.832Z,100736.47
2019-03-23T12:30:24.574Z,100737.82
2019-03-23T12:32:54.305Z,100729.81
2019-03-23T12:35:24.135Z,100720.50
2019-03-23T12:37:53.909Z,100721.45
2019-03-23T12:40:23.660Z,100718.97
2019-03-23T12:42:53.482Z,100720.69
2019-03-23T12:45:23.339Z,100725.06
2019-03-23T12:47:53.075Z,100722.22
2019-03-23T12:50:22.772Z,100711.61
2019-03-23T12:52:52.522Z,100712.70
2019-03-23T12:55:22.256Z,100712.09
2019-03-23T12:57:52.040Z,100707.38
2019-03-23T13:00:21.784Z,100706.33
2019-03-23T13:02:51.574Z,100700.52
2019-03-23T13:05:21.312Z,100693.31
2019-03-23T13:07:51.056Z,100692.41
2019-03-23T13:10:20.795Z,100691.94
2019-03-23T13:12:50.489Z,100689.17
2019-03-23T13:15:20.215Z,100687.73
2019-03-23T13:17:49.921Z,100681.89
2019-03-23T13:20:19.762Z,100678.44
2019-03-23T13:22:49.593Z,100675.11
2019-03-23T13:25:19.383Z,100679.87
2019-03-23T13:27:49.134Z,100674.18
2019-03-23T13:30:19.441Z,100667.17
2019-03-23T13:32:49.192Z,100675.55
2019-03-23T13:35:18.963Z,100667.56
2019-03-23T13:37:48.706Z,100665.89
2019-03-23T13:40:18.499Z,100663.28
2019-03-23T13:42:48.607Z,100662.34
2019-03-23T13:45:18.839Z,100662.18
2019-03-23T13:47:48.595Z,100663.26
2019-03-23T13:50:26.377Z,100670.80
2019-03-23T13:52:56.157Z,100652.47
2019-03-23T13:55:30.032Z,100651.89
2019-03-23T13:58:09.246Z,100651.34
2019-03-23T14:00:39.110Z,100642.77
2019-03-23T14:03:08.981Z,100640.27
2019-03-23T14:05:38.851Z,100642.75
2019-03-23T14:08:08.809Z,100642.50
2019-03-23T14:10:38.541Z,100633.77
2019-03-23T14:13:08.297Z,100633.70
2019-03-23T14:15:38.039Z,100632.21
2019-03-23T14:18:07.904Z,100625.81
2019-03-23T14:20:37.637Z,100625.14
2019-03-23T14:23:07.449Z,100624.09
2019-03-23T14:25:37.179Z,100622.80
2019-03-23T14:28:08.223Z,100621.79
2019-03-23T14:30:38.018Z,100612.03
2019-03-23T14:33:07.764Z,100611.61
2019-03-23T14:35:37.677Z,100616.55
2019-03-23T14:38:07.429Z,100617.81
2019-03-23T14:40:37.143Z,100612.13
2019-03-23T14:43:07.006Z,100617.61
2019-03-23T14:45:37.038Z,100608.49
2019-03-23T14:48:06.972Z,100613.10
2019-03-23T14:50:36.836Z,100614.48
2019-03-23T14:53:06.947Z,100608.41
2019-03-23T14:55:37.560Z,100607.95
2019-03-23T14:58:07.313Z,100610.34
2019-03-23T15:00:37.011Z,100604.20
2019-03-23T15:03:06.982Z,100609.55
2019-03-23T15:05:36.885Z,100607.34
2019-03-23T15:08:06.610Z,100612.40
2019-03-23T15:10:36.339Z,100604.17
2019-03-23T15:13:06.144Z,100601.77
2019-03-23T15:15:35.919Z,100597.71
2019-03-23T15:18:05.735Z,100598.31
2019-03-23T15:20:35.646Z,100600.20
2019-03-23T15:23:05.560Z,100595.15
2019-03-23T15:25:35.303Z,100595.02
2019-03-23T15:28:04.986Z,100595.09
2019-03-23T15:30:34.693Z,100588.09
2019-03-23T15:33:04.499Z,100587.47
2019-03-23T15:35:34.529Z,100586.37
2019-03-23T15:38:04.562Z,100588.39
2019-03-23T15:40:34.327Z,100585.41
2019-03-23T15:43:04.211Z,100585.58
2019-03-23T15:45:34.082Z,100583.20
2019-03-23T15:48:04.189Z,100581.73
2019-03-23T15:50:33.967Z,100583.23
2019-03-23T15:53:03.892Z,100585.41
2019-03-23T15:55:33.708Z,100589.44
2019-03-23T15:58:03.560Z,100575.13
2019-03-23T16:00:33.436Z,100578.95
2019-03-23T16:03:03.201Z,100582.72
2019-03-23T16:05:32.921Z,100590.91
2019-03-23T16:08:02.640Z,100588.70
2019-03-23T16:10:32.506Z,100588.76
2019-03-23T16:13:02.337Z,100587.86
2019-03-23T16:15:32.278Z,100587.78
2019-03-23T16:18:02.099Z,100588.76
2019-03-23T16:20:31.923Z,100583.78
2019-03-23T16:23:01.652Z,100591.93
2019-03-23T16:25:31.522Z,100590.64
2019-03-23T16:28:01.377Z,100592.90
2019-03-23T16:30:32.879Z,100587.02
2019-03-23T16:35:40.012Z,100598.41
2019-03-23T17:07:21.266Z,100602.95
2019-03-23T17:09:51.285Z,100605.36
2019-03-23T17:12:21.042Z,100605.93
2019-03-23T17:14:50.871Z,100603.59
2019-03-23T19:39:36.677Z,100738.41
2019-03-23T19:42:06.484Z,100746.68
2019-03-23T19:44:36.346Z,100741.67
2019-03-23T19:47:06.175Z,100740.83
2019-03-23T19:49:35.930Z,100732.53
2019-03-23T19:52:05.760Z,100746.56
2019-03-23T19:54:36.724Z,100745.16
2019-03-23T19:57:06.557Z,100740.70
2019-03-23T19:59:36.467Z,100748.12
2019-03-23T20:02:06.468Z,100737.97
2019-03-23T20:04:36.413Z,100740.16
2019-03-23T20:07:06.505Z,100752.69
2019-03-23T20:09:36.342Z,100746.63
2019-03-23T20:12:06.178Z,100749.77
2019-03-23T20:14:35.963Z,100749.74
2019-03-23T20:17:05.886Z,100749.79
2019-03-23T20:19:35.696Z,100749.69
2019-03-23T20:22:05.475Z,100747.52
2019-03-23T20:24:35.325Z,100748.82
2019-03-23T20:27:05.145Z,100740.02
2019-03-23T20:29:34.942Z,100743.88
2019-03-23T20:32:04.721Z,100741.25
2019-03-23T20:34:34.537Z,100743.73
2019-03-23T20:37:04.492Z,100743.48
2019-03-23T20:39:34.454Z,100747.85
2019-03-23T20:42:04.186Z,100748.55
2019-03-23T20:44:34.083Z,100751.94
2019-03-23T20:47:03.802Z,100754.05
2019-03-23T20:49:33.543Z,100752.17
2019-03-23T20:52:03.361Z,100750.75
2019-03-23T20:54:33.391Z,100743.73
2019-03-23T20:57:03.282Z,100750.95
2019-03-23T20:59:33.054Z,100748.67
2019-03-23T21:02:03.047Z,100750.64
2019-03-23T21:04:32.930Z,100753.48
2019-03-23T21:07:02.745Z,100753.94
2019-03-23T21:09:32.516Z,100755.84
2019-03-23T21:12:02.339Z,100755.37
2019-03-23T21:14:32.145Z,100747.78
2019-03-23T21:17:01.883Z,100753.20
2019-03-23T21:19:31.634Z,100751.40
2019-03-23T21:22:01.487Z,100756.94
2019-03-23T21:24:31.378Z,100750.46
2019-03-23T21:27:01.172Z,100749.05
2019-03-23T21:29:30.957Z,100745.97
2019-03-23T21:32:00.782Z,100745.28
2019-03-23T21:34:30.496Z,100746.97
2019-03-23T21:37:00.348Z,100746.30
2019-03-23T21:39:30.122Z,100746.98
2019-03-23T21:41:59.881Z,100745.16
2019-03-23T21:44:31.194Z,100746.69
2019-03-23T21:47:02.727Z,100748.81
2019-03-23T21:49:32.628Z,100744.75
2019-03-23T21:52:02.473Z,100748.23
2019-03-23T21:54:32.263Z,100746.41
2019-03-23T21:57:02.083Z,100753.03
2019-03-23T21:59:31.905Z,100753.84
2019-03-23T22:02:01.654Z,100750.10
2019-03-23T22:04:31.466Z,100750.01
2019-03-23T22:07:01.419Z,100743.19
2019-03-23T22:09:31.272Z,100744.84
2019-03-23T22:12:01.268Z,100742.44
2019-03-23T22:14:41.171Z,100740.08
2019-03-23T22:17:02.583Z,100732.13
2019-03-23T22:19:32.293Z,100731.48
2019-03-23T22:22:02.035Z,100736.73
2019-03-23T22:24:31.803Z,100740.63
2019-03-23T22:27:01.612Z,100743.73
2019-03-23T22:29:31.468Z,100741.42
2019-03-23T22:32:01.449Z,100738.84
2019-03-23T22:34:31.369Z,100738.72
2019-03-23T22:37:01.057Z,100741.94
2019-03-23T22:39:31.139Z,100744.78
2019-03-23T22:42:00.933Z,100740.25
2019-03-23T22:44:30.763Z,100737.41
2019-03-23T22:47:00.476Z,100739.72
2019-03-23T22:49:30.639Z,100731.08
2019-03-23T22:52:00.545Z,100731.52
2019-03-23T22:54:30.522Z,100732.44
2019-03-23T22:57:00.257Z,100728.05
2019-03-23T22:59:30.094Z,100726.94
2019-03-23T23:01:59.994Z,100723.95
2019-03-23T23:04:29.737Z,100724.92
2019-03-23T23:06:59.473Z,100719.70
2019-03-23T23:09:29.222Z,100720.61
2019-03-23T23:11:59.014Z,100714.02
2019-03-23T23:14:28.741Z,100719.28
2019-03-23T23:16:58.414Z,100714.42
2019-03-23T23:19:28.369Z,100718.61
2019-03-23T23:21:58.090Z,100709.34
2019-03-23T23:24:27.845Z,100707.25
2019-03-23T23:26:57.562Z,100710.94
2019-03-23T23:29:29.118Z,100707.00
2019-03-23T23:31:58.885Z,100707.30
2019-03-23T23:34:28.629Z,100707.77
2019-03-23T23:36:58.462Z,100715.47
2019-03-23T23:39:28.247Z,100711.33
2019-03-23T23:41:58.032Z,100705.37
2019-03-23T23:44:27.762Z,100706.02
2019-03-23T23:46:57.492Z,100709.94
2019-03-23T23:49:27.164Z,100712.40
2019-03-23T23:51:56.990Z,100710.66
2019-03-23T23:54:26.683Z,100702.08
2019-03-23T23:56:56.696Z,100705.94
2019-03-23T23:59:27.819Z,100707.73
